Rafsanjan, ایران

02:44 PM IRDT on اوت 31, 2014 (GMT +0430)
Kerman | Change Station
CLOSE
Current Station
Airport
Location: Kerman,
Elevation: 5755 ft
Nearby Weather Stations

Elev 5755 ft 30.25 °N, 56.97 °E | Updated 14 minutes ago

Clear
صاف
86 °F
Feels Like 86 °F
N
9
باد متغير باد from شمال

امروز
High -- | Low -- °F
--% Chance of Precip.
دیروز
High -- | Low -- °F
Precip. -- در
6:21 AM 7:10 PM
Waxing Crescent, 29% visible
فشار 30.04 در
ديد -9999.0 مايل، ميل (در برابر كيلومتر
ابری
قطره شبنم 7 °F
رطوبت 5%
بارش باران 0.00 در
برف عمیق Not available.
مادون قرمز Not available.
Pollen Not available.
تمیزی هوا Not available.
Flu Activity Not available.
METAR OIKK 311000Z 35008KT CAVOK 30/M14 Q1017 A3003

More Conditions Fewer Conditions

فشار 30.04 در
ديد -9999.0 مايل، ميل (در برابر كيلومتر
ابری
قطره شبنم 7 °F
رطوبت 5%
بارش باران 0.00 در
برف عمیق Not available.
مادون قرمز Not available.
Pollen Not available.
تمیزی هوا Not available.
Flu Activity Not available.
METAR OIKK 311000Z 35008KT CAVOK 30/M14 Q1017 A3003

More Conditions Fewer Conditions

10-Day Weather Forecast

Almanac

ستاره شناسی

Aug. 31, 2014 Rise Set
وقت حقیقی 6:21 AM IRDT 7:10 PM IRDT
تاریک و روشن اجتماعی 5:57 AM IRDT 7:34 PM IRDT
تاریک روشن دریایی 5:28 AM IRDT 8:03 PM IRDT
شفق و فلق نجومی 4:58 AM IRDT 8:32 PM IRDT
ماه 11:19 AM IRDT 10:33 PM IRDT
میزان روشنایی روز 13h 37m
طول روز
12h 48m
Tomorrow will be 1m 45s shorter.
Waxing Crescent, 29% of the Moon is Illuminated
امروز
Waxing Crescent
Sep 2
ربع اول
Sep 8
ماه کامل
Sep 15
ربع آخر
Sep 24
New

Yesterday's Extremes

Country Highs Country Lows

Community

WunderPhotos

Upload Photos

1,748,834 photos uploaded!

Nearby

تمیزی هوا

Not available.

عمق برف

Not available.

Earthquake Activity

شهر Distance Mag. Time & Date
No recent earthquake activity has been reported nearby.
Minimum magnitude displayed is 2.5.

Coastal Water Temperatures

منطقه درجه حرارت
No Stations Reporting

Nearby Weather Stations